AFR1450 KLAX-LFPG
Flight info
| Callsign | AFR1450 |
|---|---|
| Flight time | N/A |
| Altitude | 33000 |
| Route | ORCKA5 LAS DCT BAWER DCT HVE DCT CYS DCT BFF DCT DLH DCT AGLIN DCT 50N086W 5330N08000W 5830N07000W/N0476F350 DCT GRIBS/M083F350 DCT KETLA DCT 63N050W 6230N04000W 61N030W 59N020W DCT AGORI/N0476F350 DCT OSBOX DCT APSOV DCT PEPOD DCT MAKUX DCT SOSIM L15 KEPAD L151 MID/N0486F290 Y803 SFD UM605 BIBAX |
| Aircraft | A339/H-SADE1E2E3GHIJ3J5M1P2RWXY/LB2D1 |
Departure
| Time | N/A |
|---|---|
| Airport | Los Angeles International Airport (KLAX) |
Arrival
| Time | 2026-05-05 10:17 |
|---|---|
| Airport | Charles de Gaulle International Airport (LFPG) |
| Time | Latitude | Longitude | Altitude | Speed | Heading |
|---|---|---|---|---|---|
| 2026-05-05 09:27 | 52.63162 | -2.28245 | 33039 ft | 472 kts | 148° |
| 2026-05-05 09:28 | 52.57675 | -2.22235 | 33039 ft | 472 kts | 148° |
| 2026-05-05 09:28 | 52.52215 | -2.16277 | 33039 ft | 471 kts | 148° |
| 2026-05-05 09:29 | 52.46774 | -2.10358 | 33038 ft | 471 kts | 148° |
| 2026-05-05 09:29 | 52.41329 | -2.04453 | 33035 ft | 471 kts | 148° |
| 2026-05-05 09:30 | 52.35873 | -1.98547 | 33031 ft | 470 kts | 148° |
| 2026-05-05 09:30 | 52.30460 | -1.92711 | 33027 ft | 470 kts | 148° |
| 2026-05-05 09:31 | 52.24993 | -1.86833 | 33023 ft | 470 kts | 148° |
| 2026-05-05 09:31 | 52.19530 | -1.80973 | 33019 ft | 469 kts | 148° |
| 2026-05-05 09:32 | 52.14096 | -1.75166 | 33018 ft | 469 kts | 148° |
| 2026-05-05 09:32 | 52.08640 | -1.69354 | 33018 ft | 469 kts | 148° |
| 2026-05-05 09:33 | 52.03159 | -1.63515 | 33017 ft | 469 kts | 148° |
| 2026-05-05 09:33 | 51.97709 | -1.57742 | 33011 ft | 469 kts | 148° |
| 2026-05-05 09:34 | 51.92247 | -1.51984 | 33000 ft | 469 kts | 148° |
| 2026-05-05 09:34 | 51.86948 | -1.45802 | 32994 ft | 471 kts | 141° |
| 2026-05-05 09:35 | 51.81977 | -1.38906 | 32987 ft | 471 kts | 140° |
| 2026-05-05 09:35 | 51.74567 | -1.28511 | 32983 ft | 470 kts | 139° |
| 2026-05-05 09:36 | 51.69745 | -1.21368 | 32983 ft | 470 kts | 139° |
| 2026-05-05 09:36 | 51.64935 | -1.14334 | 32983 ft | 469 kts | 140° |
| 2026-05-05 09:37 | 51.60081 | -1.07418 | 32983 ft | 469 kts | 140° |
| 2026-05-05 09:37 | 51.55174 | -1.00452 | 32983 ft | 468 kts | 140° |
| 2026-05-05 09:38 | 51.50309 | -0.93547 | 32982 ft | 468 kts | 140° |
| 2026-05-05 09:38 | 51.45436 | -0.86648 | 32982 ft | 468 kts | 140° |
| 2026-05-05 09:39 | 51.40582 | -0.79805 | 32982 ft | 467 kts | 140° |
| 2026-05-05 09:39 | 51.35710 | -0.72953 | 32983 ft | 467 kts | 140° |
| 2026-05-05 09:40 | 51.30833 | -0.66111 | 32982 ft | 467 kts | 140° |
| 2026-05-05 09:40 | 51.25943 | -0.59272 | 32981 ft | 466 kts | 140° |
| 2026-05-05 09:41 | 51.21051 | -0.52450 | 32980 ft | 465 kts | 140° |
| 2026-05-05 09:41 | 51.16193 | -0.45697 | 32979 ft | 465 kts | 140° |
| 2026-05-05 09:42 | 51.11303 | -0.38921 | 32978 ft | 465 kts | 140° |
| 2026-05-05 09:42 | 51.06431 | -0.32193 | 32972 ft | 464 kts | 141° |
| 2026-05-05 09:43 | 51.01551 | -0.25468 | 32965 ft | 464 kts | 141° |
| 2026-05-05 09:43 | 50.96689 | -0.18786 | 32960 ft | 464 kts | 141° |
| 2026-05-05 09:44 | 50.91822 | -0.12115 | 32957 ft | 464 kts | 141° |
| 2026-05-05 09:44 | 50.86937 | -0.05437 | 32957 ft | 463 kts | 141° |
| 2026-05-05 09:45 | 50.82062 | 0.01207 | 32957 ft | 463 kts | 141° |
| 2026-05-05 09:45 | 50.77200 | 0.07812 | 32957 ft | 463 kts | 141° |
| 2026-05-05 09:46 | 50.72347 | 0.14389 | 32953 ft | 463 kts | 141° |
| 2026-05-05 09:46 | 50.69884 | 0.17722 | 32753 ft | 462 kts | 141° |
| 2026-05-05 09:46 | 50.67471 | 0.20983 | 32484 ft | 460 kts | 141° |
| 2026-05-05 09:47 | 50.65071 | 0.24219 | 32102 ft | 457 kts | 141° |
| 2026-05-05 09:47 | 50.62664 | 0.27459 | 31566 ft | 457 kts | 141° |
| 2026-05-05 09:47 | 50.60246 | 0.30705 | 30990 ft | 457 kts | 141° |
| 2026-05-05 09:47 | 50.57817 | 0.33963 | 30424 ft | 458 kts | 141° |
| 2026-05-05 09:48 | 50.55425 | 0.37168 | 29815 ft | 459 kts | 141° |
| 2026-05-05 09:48 | 50.52999 | 0.40415 | 29103 ft | 459 kts | 141° |
| 2026-05-05 09:48 | 50.50570 | 0.43660 | 28426 ft | 459 kts | 141° |
| 2026-05-05 09:48 | 50.48141 | 0.46901 | 27762 ft | 457 kts | 141° |
| 2026-05-05 09:49 | 50.45744 | 0.50099 | 27266 ft | 452 kts | 141° |
| 2026-05-05 09:49 | 50.43367 | 0.53263 | 26767 ft | 450 kts | 141° |
| 2026-05-05 09:49 | 50.40982 | 0.56433 | 26297 ft | 448 kts | 141° |
| 2026-05-05 09:49 | 50.38631 | 0.59556 | 25865 ft | 446 kts | 140° |
| 2026-05-05 09:50 | 50.36278 | 0.62675 | 25461 ft | 444 kts | 140° |
| 2026-05-05 09:50 | 50.33892 | 0.65799 | 25098 ft | 441 kts | 142° |
| 2026-05-05 09:50 | 50.31525 | 0.68779 | 24716 ft | 438 kts | 142° |
| 2026-05-05 09:50 | 50.29143 | 0.71741 | 24326 ft | 436 kts | 142° |
| 2026-05-05 09:51 | 50.26820 | 0.74629 | 23949 ft | 433 kts | 142° |
| 2026-05-05 09:51 | 50.24458 | 0.77568 | 23572 ft | 430 kts | 142° |
| 2026-05-05 09:51 | 50.22125 | 0.80475 | 23193 ft | 426 kts | 142° |
| 2026-05-05 09:51 | 50.19844 | 0.83316 | 22820 ft | 422 kts | 142° |
| 2026-05-05 09:52 | 50.17569 | 0.86147 | 22439 ft | 419 kts | 142° |
| 2026-05-05 09:52 | 50.15285 | 0.88987 | 22102 ft | 413 kts | 142° |
| 2026-05-05 09:52 | 50.13084 | 0.91721 | 21978 ft | 399 kts | 142° |
| 2026-05-05 09:52 | 50.10970 | 0.94341 | 21869 ft | 385 kts | 142° |
| 2026-05-05 09:53 | 50.08908 | 0.96896 | 21779 ft | 372 kts | 142° |
| 2026-05-05 09:53 | 50.06881 | 0.99274 | 21728 ft | 360 kts | 146° |
| 2026-05-05 09:53 | 50.04812 | 1.01339 | 21670 ft | 354 kts | 150° |
| 2026-05-05 09:53 | 50.02620 | 1.03179 | 21314 ft | 356 kts | 154° |
| 2026-05-05 09:54 | 50.00415 | 1.04845 | 20904 ft | 356 kts | 154° |
| 2026-05-05 09:54 | 49.98169 | 1.06533 | 20523 ft | 355 kts | 154° |
| 2026-05-05 09:54 | 49.95949 | 1.08196 | 20168 ft | 353 kts | 154° |
| 2026-05-05 09:54 | 49.93768 | 1.09830 | 19829 ft | 352 kts | 154° |
| 2026-05-05 09:55 | 49.91558 | 1.11485 | 19483 ft | 349 kts | 154° |
| 2026-05-05 09:55 | 49.89364 | 1.13129 | 19133 ft | 347 kts | 154° |
| 2026-05-05 09:55 | 49.87221 | 1.14733 | 18804 ft | 344 kts | 154° |
| 2026-05-05 09:55 | 49.85074 | 1.16339 | 18477 ft | 341 kts | 154° |
| 2026-05-05 09:56 | 49.82952 | 1.17925 | 18158 ft | 338 kts | 154° |
| 2026-05-05 09:56 | 49.80835 | 1.19508 | 17842 ft | 336 kts | 154° |
| 2026-05-05 09:56 | 49.78762 | 1.21056 | 17519 ft | 334 kts | 154° |
| 2026-05-05 09:56 | 49.76653 | 1.22629 | 16926 ft | 341 kts | 154° |
| 2026-05-05 09:57 | 49.74498 | 1.24236 | 16372 ft | 345 kts | 154° |
| 2026-05-05 09:57 | 49.72370 | 1.25820 | 15996 ft | 343 kts | 154° |
| 2026-05-05 09:57 | 49.70216 | 1.27421 | 15622 ft | 341 kts | 154° |
| 2026-05-05 09:57 | 49.68092 | 1.28998 | 15238 ft | 339 kts | 154° |
| 2026-05-05 09:58 | 49.65963 | 1.30578 | 14850 ft | 337 kts | 154° |
| 2026-05-05 09:58 | 49.63860 | 1.32137 | 14464 ft | 336 kts | 153° |
| 2026-05-05 09:58 | 49.61767 | 1.33689 | 14084 ft | 335 kts | 153° |
| 2026-05-05 09:58 | 49.59669 | 1.35243 | 13711 ft | 333 kts | 153° |
| 2026-05-05 09:59 | 49.57586 | 1.36784 | 13342 ft | 332 kts | 153° |
| 2026-05-05 09:59 | 49.55503 | 1.38324 | 12969 ft | 331 kts | 153° |
| 2026-05-05 09:59 | 49.53435 | 1.39850 | 12600 ft | 329 kts | 153° |
| 2026-05-05 09:59 | 49.51378 | 1.41369 | 12232 ft | 328 kts | 153° |
| 2026-05-05 10:00 | 49.49336 | 1.42875 | 11875 ft | 326 kts | 153° |
| 2026-05-05 10:00 | 49.47281 | 1.44388 | 11520 ft | 325 kts | 153° |
| 2026-05-05 10:00 | 49.45266 | 1.45871 | 11167 ft | 324 kts | 153° |
| 2026-05-05 10:00 | 49.43224 | 1.47371 | 10811 ft | 323 kts | 153° |
| 2026-05-05 10:01 | 49.41198 | 1.48858 | 10460 ft | 321 kts | 153° |
| 2026-05-05 10:01 | 49.39177 | 1.50340 | 10110 ft | 320 kts | 153° |
| 2026-05-05 10:01 | 49.37194 | 1.51792 | 9861 ft | 316 kts | 153° |
| 2026-05-05 10:01 | 49.35200 | 1.53252 | 9846 ft | 315 kts | 153° |
| 2026-05-05 10:02 | 49.33249 | 1.54679 | 9762 ft | 305 kts | 153° |
| 2026-05-05 10:02 | 49.31398 | 1.56147 | 9608 ft | 297 kts | 142° |
| 2026-05-05 10:02 | 49.30116 | 1.58488 | 9444 ft | 286 kts | 112° |
| 2026-05-05 10:02 | 49.29700 | 1.61368 | 9290 ft | 278 kts | 92° |
| 2026-05-05 10:03 | 49.29612 | 1.64327 | 9035 ft | 276 kts | 91° |
| 2026-05-05 10:03 | 49.29520 | 1.67271 | 8750 ft | 276 kts | 92° |
| 2026-05-05 10:03 | 49.29415 | 1.70158 | 8496 ft | 275 kts | 93° |
| 2026-05-05 10:03 | 49.29248 | 1.73060 | 8226 ft | 274 kts | 102° |
| 2026-05-05 10:04 | 49.28415 | 1.75661 | 7907 ft | 277 kts | 130° |
| 2026-05-05 10:04 | 49.26862 | 1.77417 | 7661 ft | 278 kts | 153° |
| 2026-05-05 10:04 | 49.25106 | 1.78576 | 7417 ft | 277 kts | 155° |
| 2026-05-05 10:04 | 49.23326 | 1.79733 | 7138 ft | 276 kts | 155° |
| 2026-05-05 10:05 | 49.21584 | 1.80881 | 6901 ft | 274 kts | 154° |
| 2026-05-05 10:05 | 49.19825 | 1.82056 | 6856 ft | 273 kts | 154° |
| 2026-05-05 10:05 | 49.18081 | 1.83229 | 6853 ft | 275 kts | 154° |
| 2026-05-05 10:05 | 49.16336 | 1.84407 | 6852 ft | 275 kts | 154° |
| 2026-05-05 10:06 | 49.14612 | 1.85567 | 6846 ft | 266 kts | 154° |
| 2026-05-05 10:06 | 49.12933 | 1.86692 | 6844 ft | 255 kts | 154° |
| 2026-05-05 10:06 | 49.11347 | 1.87755 | 6842 ft | 244 kts | 154° |
| 2026-05-05 10:06 | 49.09805 | 1.88789 | 6849 ft | 246 kts | 154° |
| 2026-05-05 10:07 | 49.08242 | 1.89836 | 6851 ft | 246 kts | 154° |
| 2026-05-05 10:07 | 49.06663 | 1.90895 | 6851 ft | 246 kts | 154° |
| 2026-05-05 10:07 | 49.05093 | 1.91948 | 6851 ft | 246 kts | 154° |
| 2026-05-05 10:07 | 49.03540 | 1.92988 | 6851 ft | 245 kts | 154° |
| 2026-05-05 10:08 | 49.02005 | 1.94011 | 6842 ft | 237 kts | 154° |
| 2026-05-05 10:08 | 49.00551 | 1.95095 | 6752 ft | 227 kts | 139° |
| 2026-05-05 10:08 | 48.99631 | 1.96934 | 6608 ft | 216 kts | 107° |
| 2026-05-05 10:08 | 48.99263 | 1.99106 | 6487 ft | 209 kts | 102° |
| 2026-05-05 10:09 | 48.98948 | 2.01246 | 6366 ft | 203 kts | 102° |
| 2026-05-05 10:09 | 48.98637 | 2.03313 | 6241 ft | 198 kts | 102° |
| 2026-05-05 10:09 | 48.98324 | 2.05344 | 6057 ft | 196 kts | 103° |
| 2026-05-05 10:09 | 48.98002 | 2.07355 | 5841 ft | 195 kts | 104° |
| 2026-05-05 10:10 | 48.97653 | 2.09340 | 5625 ft | 194 kts | 104° |
| 2026-05-05 10:10 | 48.97304 | 2.11298 | 5504 ft | 187 kts | 103° |
| 2026-05-05 10:10 | 48.97081 | 2.13204 | 5359 ft | 180 kts | 95° |
| 2026-05-05 10:10 | 48.97041 | 2.15069 | 5180 ft | 176 kts | 86° |
| 2026-05-05 10:11 | 48.97157 | 2.16935 | 4997 ft | 173 kts | 83° |
| 2026-05-05 10:11 | 48.97309 | 2.18792 | 4998 ft | 176 kts | 84° |
| 2026-05-05 10:11 | 48.97446 | 2.20642 | 4914 ft | 177 kts | 84° |
| 2026-05-05 10:11 | 48.97565 | 2.22499 | 4680 ft | 175 kts | 85° |
| 2026-05-05 10:12 | 48.97669 | 2.24335 | 4450 ft | 174 kts | 85° |
| 2026-05-05 10:12 | 48.97763 | 2.26162 | 4221 ft | 174 kts | 86° |
| 2026-05-05 10:12 | 48.97853 | 2.28023 | 3989 ft | 173 kts | 86° |
| 2026-05-05 10:12 | 48.97937 | 2.29857 | 3760 ft | 172 kts | 86° |
| 2026-05-05 10:13 | 48.98021 | 2.31678 | 3537 ft | 172 kts | 86° |
| 2026-05-05 10:13 | 48.98106 | 2.33482 | 3335 ft | 171 kts | 85° |
| 2026-05-05 10:13 | 48.98194 | 2.35281 | 3116 ft | 171 kts | 85° |
| 2026-05-05 10:13 | 48.98286 | 2.37090 | 2890 ft | 170 kts | 85° |
| 2026-05-05 10:14 | 48.98375 | 2.38841 | 2657 ft | 164 kts | 85° |
| 2026-05-05 10:14 | 48.98459 | 2.40550 | 2421 ft | 158 kts | 84° |
| 2026-05-05 10:14 | 48.98543 | 2.42184 | 2203 ft | 150 kts | 84° |
| 2026-05-05 10:14 | 48.98625 | 2.43741 | 2002 ft | 145 kts | 84° |
| 2026-05-05 10:15 | 48.98705 | 2.45270 | 1822 ft | 146 kts | 84° |
| 2026-05-05 10:15 | 48.98785 | 2.46803 | 1632 ft | 145 kts | 83° |
| 2026-05-05 10:15 | 48.98864 | 2.48346 | 1437 ft | 145 kts | 83° |
| 2026-05-05 10:15 | 48.98944 | 2.49913 | 1236 ft | 144 kts | 83° |
| 2026-05-05 10:16 | 48.99023 | 2.51440 | 1037 ft | 144 kts | 82° |
| 2026-05-05 10:16 | 48.99102 | 2.52960 | 839 ft | 143 kts | 82° |
| 2026-05-05 10:16 | 48.99181 | 2.54459 | 642 ft | 143 kts | 81° |
| 2026-05-05 10:16 | 48.99258 | 2.55958 | 446 ft | 142 kts | 81° |
| 2026-05-05 10:17 | 48.99340 | 2.57433 | 343 ft | 129 kts | 82° |
| 2026-05-05 10:17 | 48.99403 | 2.58586 | 331 ft | 81 kts | 85° |
| 2026-05-05 10:17 | 48.99432 | 2.59190 | 324 ft | 41 kts | 84° |
| 2026-05-05 10:17 | 48.99457 | 2.59607 | 323 ft | 35 kts | 84° |
| 2026-05-05 10:18 | 48.99505 | 2.59892 | 323 ft | 25 kts | 53° |
| 2026-05-05 10:18 | 48.99608 | 2.59978 | 324 ft | 12 kts | 1° |
| 2026-05-05 10:18 | 48.99686 | 2.59973 | 326 ft | 3 kts | 355° |
| 2026-05-05 10:18 | 48.99700 | 2.59972 | 326 ft | 0 kts | 355° |
| 2026-05-05 10:19 | 48.99709 | 2.59971 | 326 ft | 2 kts | 355° |
| 2026-05-05 10:19 | 48.99751 | 2.59966 | 326 ft | 9 kts | 355° |
| 2026-05-05 10:20 | 48.99831 | 2.59959 | 326 ft | 12 kts | 1° |
| 2026-05-05 10:20 | 48.99898 | 2.60003 | 331 ft | 8 kts | 40° |
| 2026-05-05 10:20 | 48.99941 | 2.60055 | 334 ft | 6 kts | 26° |
| 2026-05-05 10:20 | 48.99974 | 2.60068 | 337 ft | 3 kts | 359° |
| 2026-05-05 10:21 | 49.00008 | 2.60044 | 339 ft | 13 kts | 327° |
| 2026-05-05 10:21 | 49.00083 | 2.59958 | 339 ft | 13 kts | 297° |
| 2026-05-05 10:21 | 49.00081 | 2.59839 | 337 ft | 10 kts | 272° |
| 2026-05-05 10:21 | 49.00084 | 2.59721 | 337 ft | 11 kts | 269° |
| 2026-05-05 10:22 | 49.00080 | 2.59597 | 337 ft | 12 kts | 266° |
| 2026-05-05 10:22 | 49.00074 | 2.59464 | 337 ft | 12 kts | 265° |
| 2026-05-05 10:22 | 49.00066 | 2.59325 | 337 ft | 13 kts | 265° |
| 2026-05-05 10:22 | 49.00058 | 2.59163 | 337 ft | 16 kts | 265° |
| 2026-05-05 10:23 | 49.00048 | 2.58985 | 337 ft | 17 kts | 265° |
| 2026-05-05 10:23 | 49.00037 | 2.58802 | 336 ft | 17 kts | 264° |
| 2026-05-05 10:23 | 49.00028 | 2.58628 | 340 ft | 15 kts | 265° |
| 2026-05-05 10:23 | 49.00020 | 2.58476 | 343 ft | 13 kts | 265° |
| 2026-05-05 10:24 | 49.00012 | 2.58332 | 346 ft | 14 kts | 265° |
| 2026-05-05 10:24 | 49.00005 | 2.58181 | 349 ft | 13 kts | 265° |
| 2026-05-05 10:24 | 48.99997 | 2.58039 | 349 ft | 13 kts | 264° |
| 2026-05-05 10:24 | 48.99989 | 2.57896 | 351 ft | 12 kts | 265° |
| 2026-05-05 10:25 | 48.99986 | 2.57809 | 352 ft | 7 kts | 276° |
| 2026-05-05 10:25 | 49.00010 | 2.57749 | 352 ft | 7 kts | 329° |
| 2026-05-05 10:25 | 49.00061 | 2.57732 | 352 ft | 8 kts | 355° |
| 2026-05-05 10:25 | 49.00097 | 2.57729 | 352 ft | 2 kts | 355° |
| 2026-05-05 10:26 | 49.00116 | 2.57726 | 352 ft | 2 kts | 354° |
| 2026-05-05 10:26 | 49.00131 | 2.57724 | 352 ft | 2 kts | 355° |
| 2026-05-05 10:26 | 49.00139 | 2.57723 | 352 ft | 0 kts | 355° |
| 2026-05-05 10:26 | 49.00144 | 2.57723 | 352 ft | 0 kts | 355° |